Wes Sellars — WDF9302 — position and weather

sailwx.info

Track history (hours):
 
Tides and Currents Weather Stations Pressure Air Temp Water Temp Dewpoint Dewpoint Depression Visibility Wind Speed Wind Dir Waves Ship Positions

Wes Sellars

Owner: Florida Marine, LLC, Mandeville, LA. More information available from US FCC via Universal Licensing System and Coast Guard Vessel Documentation Center.

Last reported at 2015-Apr-27 23:34 UTC. Time now 2015-Apr-28 00:31 UTC.
Position N 29°44' W 095°12'.

Length 27 m.

Type: Towing. MMSI: 367503760.

Date/timePositionNaut miles runAvg speedWind from/ knotsBaromVisibWave heightAir tempDewpointWater temp
2015-Apr-27 23:34N 29°44' W 095°12'0 0.0
2015-Apr-27 22:33N 29°44' W 095°12'0 0.0
2015-Apr-27 21:33N 29°44' W 095°12'0 0.0
2015-Apr-27 20:33N 29°44' W 095°12'0 0.0
2015-Apr-27 19:33N 29°44' W 095°12'0 0.0
2015-Apr-27 18:33N 29°44' W 095°12'0 0.0
2015-Apr-27 17:33N 29°44' W 095°12'0 0.0
2015-Apr-27 16:33N 29°44' W 095°12'0 0.0
2015-Apr-27 15:33N 29°44' W 095°12'0 0.0
2015-Apr-27 14:33N 29°44' W 095°12'0 0.0
2015-Apr-27 13:33N 29°44' W 095°12'0 0.0
2015-Apr-27 12:33N 29°44' W 095°12'0 0.0
2015-Apr-27 11:33N 29°44' W 095°12'0 0.0
2015-Apr-27 10:33N 29°44' W 095°12'0 0.0
2015-Apr-27 09:33N 29°44' W 095°12'0 0.0
2015-Apr-27 08:33N 29°44' W 095°12'0 0.0
2015-Apr-27 07:33N 29°44' W 095°12'0 0.0
2015-Apr-27 06:33N 29°44' W 095°12'0 0.0
2015-Apr-27 05:33N 29°44' W 095°12'0 0.0
2015-Apr-27 04:33N 29°44' W 095°12'0 0.0
2015-Apr-27 03:33N 29°44' W 095°12'0 0.0
2015-Apr-27 02:33N 29°44' W 095°12'0 0.0
2015-Apr-27 01:33N 29°44' W 095°12'0 0.0
2015-Apr-27 00:33N 29°44' W 095°12'0 0.0
2015-Apr-26 23:33N 29°44' W 095°12'0 0.0
2015-Apr-26 22:33N 29°44' W 095°12'0 0.0
2015-Apr-26 21:33N 29°44' W 095°12'1 0.5
2015-Apr-26 20:33N 29°45' W 095°12'5 4.6
2015-Apr-26 19:33N 29°45' W 095°06'4 3.6
2015-Apr-26 18:33N 29°47' W 095°04'1 0.9
2015-Apr-26 17:33N 29°47' W 095°05'4 4.0
2015-Apr-26 16:33N 29°44' W 095°01'0 0.1
2015-Apr-26 15:34N 29°44' W 095°01'1 0.6
2015-Apr-26 14:33N 29°43' W 095°01'0 0.0
2015-Apr-26 13:33N 29°43' W 095°01'0 0.0
2015-Apr-26 12:33N 29°43' W 095°01'0 0.0
2015-Apr-26 11:33N 29°43' W 095°01'5 4.7
2015-Apr-26 10:33N 29°47' W 095°04'2 2.4
2015-Apr-26 09:33N 29°46' W 095°06'0 0.0
2015-Apr-26 08:33N 29°46' W 095°06'0 0.0
2015-Apr-26 07:33N 29°46' W 095°06'0 0.0
2015-Apr-26 06:33N 29°46' W 095°06'0 0.0
2015-Apr-26 05:33N 29°46' W 095°06'0 0.0
2015-Apr-26 04:33N 29°46' W 095°06'0 0.0
2015-Apr-26 03:33N 29°46' W 095°06'0 0.0
2015-Apr-26 02:33N 29°46' W 095°06'0 0.0
2015-Apr-26 01:33N 29°46' W 095°06'0 0.0
2015-Apr-26 00:33N 29°46' W 095°06'0 0.0
2015-Apr-25 23:33N 29°46' W 095°06'872871.8
2015-Apr-25 22:33N 29°46' W 111°50'872871.0
2015-Apr-25 21:33N 29°46' W 095°06'0 0.0
2015-Apr-25 20:33N 29°46' W 095°06'0 0.0
2015-Apr-25 19:33N 29°46' W 095°06'0 0.0
2015-Apr-25 18:33N 29°46' W 095°06'0 0.0
2015-Apr-25 17:34N 29°46' W 095°06'0 0.0
2015-Apr-25 16:33N 29°46' W 095°06'0 0.0
2015-Apr-25 15:33N 29°46' W 095°06'0 0.0
2015-Apr-25 14:33N 29°46' W 095°06'0 0.0
2015-Apr-25 13:33N 29°46' W 095°06'0 0.0
2015-Apr-25 12:33N 29°46' W 095°06'0 0.0
2015-Apr-25 11:33N 29°46' W 095°06'0 0.0
2015-Apr-25 10:33N 29°46' W 095°06'0 0.0
2015-Apr-25 09:33N 29°46' W 095°06'0 0.0
2015-Apr-25 08:33N 29°46' W 095°06'0 0.0
2015-Apr-25 07:33N 29°46' W 095°06'0 0.0
2015-Apr-25 06:33N 29°46' W 095°06'0 0.0
2015-Apr-25 05:33N 29°46' W 095°06'0 0.0
2015-Apr-25 04:33N 29°46' W 095°06'0 0.0
2015-Apr-25 03:33N 29°46' W 095°06'0 0.0
2015-Apr-25 02:33N 29°46' W 095°06'0 0.0
2015-Apr-25 01:33N 29°46' W 095°06'0 0.0
2015-Apr-25 00:33N 29°46' W 095°06'0 0.0
2015-Apr-24 23:33N 29°46' W 095°06'0 0.0
2015-Apr-24 22:33N 29°46' W 095°06'0 0.0
2015-Apr-24 21:33N 29°46' W 095°06'0 0.0
2015-Apr-24 20:33N 29°46' W 095°06'0 0.0
2015-Apr-24 19:33N 29°46' W 095°06'0 0.0
2015-Apr-24 18:33N 29°46' W 095°06'1 1.3
2015-Apr-24 17:33N 29°46' W 095°05'1 0.9
2015-Apr-24 16:33N 29°47' W 095°05'0 0.0
2015-Apr-24 15:33N 29°47' W 095°05'0 0.3
2015-Apr-24 14:34N 29°47' W 095°04'2 1.8
2015-Apr-24 13:33N 29°46' W 095°06'0 0.0
2015-Apr-24 12:33N 29°46' W 095°06'0 0.0
2015-Apr-24 11:33N 29°46' W 095°06'0 0.0
2015-Apr-24 10:33N 29°46' W 095°06'0 0.0
2015-Apr-24 09:33N 29°46' W 095°06'0 0.0
2015-Apr-24 08:33N 29°46' W 095°06'0 0.0
2015-Apr-24 07:33N 29°46' W 095°06'0 0.0
2015-Apr-24 06:33N 29°46' W 095°06'0 0.0
2015-Apr-24 05:33N 29°46' W 095°06'0 0.0
2015-Apr-24 04:33N 29°46' W 095°06'0 0.0
2015-Apr-24 03:33N 29°46' W 095°06'0 0.0
2015-Apr-24 02:33N 29°46' W 095°06'0 0.4
2015-Apr-24 01:34N 29°46' W 095°06'2 2.4
2015-Apr-24 00:33N 29°47' W 095°04'0 0.3
2015-Apr-23 23:33N 29°47' W 095°04'2 2.4
2015-Apr-23 22:33N 29°45' W 095°06'1 0.8
2015-Apr-23 21:33N 29°46' W 095°07'0 0.0
2015-Apr-23 20:33N 29°46' W 095°07'0 0.0
2015-Apr-23 19:33N 29°46' W 095°07'0 0.0
2015-Apr-23 18:33N 29°46' W 095°07'0 0.0
2015-Apr-23 17:33N 29°46' W 095°07'0 0.0
2015-Apr-23 16:33N 29°46' W 095°07'0 0.0
2015-Apr-23 15:33N 29°46' W 095°07'0 0.0
2015-Apr-23 14:33N 29°46' W 095°07'0 0.0
2015-Apr-23 13:33N 29°46' W 095°07'0 0.1
2015-Apr-23 12:34N 29°46' W 095°07'0 0.0
2015-Apr-23 11:33N 29°46' W 095°07'1 1.2
2015-Apr-23 10:33N 29°46' W 095°05'2 1.8
2015-Apr-23 09:33N 29°47' W 095°04'0 0.3
2015-Apr-23 08:33N 29°47' W 095°04'2 1.8
2015-Apr-23 07:33N 29°46' W 095°06'0 0.0
2015-Apr-23 06:33N 29°46' W 095°06'0 0.0
2015-Apr-23 05:33N 29°46' W 095°06'0 0.0
2015-Apr-23 04:33N 29°46' W 095°06'0 0.0
2015-Apr-23 03:33N 29°46' W 095°06'0 0.0
2015-Apr-23 02:33N 29°46' W 095°06'0 0.0
2015-Apr-23 01:33N 29°46' W 095°06'0 0.0
2015-Apr-23 00:33N 29°46' W 095°06'0 0.0
2015-Apr-22 23:33N 29°46' W 095°06'0 0.0
2015-Apr-22 22:33N 29°46' W 095°06'0 0.0
2015-Apr-22 21:33N 29°46' W 095°06'0 0.0
2015-Apr-22 20:33N 29°46' W 095°06'0 0.0
2015-Apr-22 19:33N 29°46' W 095°06'0 0.0
2015-Apr-22 18:33N 29°46' W 095°06'0 0.0
2015-Apr-22 17:33N 29°46' W 095°06'0 0.0
2015-Apr-22 16:33N 29°46' W 095°06'2 2.1
2015-Apr-22 15:33N 29°47' W 095°04'2 2.1
2015-Apr-22 14:33N 29°46' W 095°06'0 0.0
2015-Apr-22 13:33N 29°46' W 095°06'0 0.0
2015-Apr-22 12:33N 29°46' W 095°06'0 0.0
2015-Apr-22 11:33N 29°46' W 095°06'0 0.0
2015-Apr-22 10:33N 29°46' W 095°06'0 0.0
2015-Apr-22 09:33N 29°46' W 095°06'0 0.0
2015-Apr-22 08:33N 29°46' W 095°06'0 0.0
2015-Apr-22 07:33N 29°46' W 095°06'0 0.0
2015-Apr-22 06:33N 29°46' W 095°06'2 2.2
2015-Apr-22 05:33N 29°47' W 095°04'0 0.0
2015-Apr-22 04:33N 29°47' W 095°04'0 0.1
2015-Apr-22 03:33N 29°47' W 095°04'0 0.0
2015-Apr-22 02:32N 29°47' W 095°04'0 0.0
2015-Apr-22 01:32N 29°47' W 095°04'0 0.0
2015-Apr-22 00:33N 29°47' W 095°04'0 0.5
2015-Apr-21 23:33N 29°47' W 095°04'3 2.6
2015-Apr-21 22:33N 29°44' W 095°04'7 7.0
2015-Apr-21 21:33N 29°39' W 094°58'9 9.0
2015-Apr-21 20:33N 29°31' W 094°53'10 8.7
2015-Apr-21 19:24N 29°22' W 094°48'27 4.3
2015-Apr-21 13:16N 29°36' W 094°22'6 6.1
2015-Apr-21 12:18N 29°39' W 094°16'  
2015-Apr-18 14:07N 29°22' W 094°48'4 7.4
2015-Apr-18 13:33N 29°26' W 094°50'9 9.0
2015-Apr-18 12:33N 29°34' W 094°55'9 9.3
2015-Apr-18 11:33N 29°42' W 094°60'7 6.8
2015-Apr-18 10:34N 29°44' W 095°07'4 4.4
2015-Apr-18 09:33N 29°44' W 095°12'0 0.0
2015-Apr-18 08:33N 29°44' W 095°12'0 0.0
2015-Apr-18 07:33N 29°44' W 095°12'0 0.0
2015-Apr-18 06:33N 29°44' W 095°12'0 0.0
2015-Apr-18 05:33N 29°44' W 095°12'0 0.0
2015-Apr-18 04:33N 29°44' W 095°12'0 0.0
2015-Apr-18 03:33N 29°44' W 095°12'0 0.0
2015-Apr-18 02:33N 29°44' W 095°12'0 0.0
2015-Apr-18 01:33N 29°44' W 095°12'0 0.0
2015-Apr-18 00:33N 29°44' W 095°12'  
Track history (hours):
 
Tides and Currents Weather Stations Pressure Air Temp Water Temp Dewpoint Dewpoint Depression Visibility Wind Speed Wind Dir Waves Ship Positions

Wes Sellars

Owner: Florida Marine, LLC, Mandeville, LA. More information available from US FCC via Universal Licensing System and Coast Guard Vessel Documentation Center.

Last reported at 2015-Apr-27 23:34 UTC. Time now 2015-Apr-28 00:31 UTC.
Position N 29°44' W 095°12'.

Length 27 m.

Type: Towing. MMSI: 367503760.

Date/timePositionNaut miles runAvg speedWind from/ knotsBaromVisibWave heightAir tempDewpointWater temp
2015-Apr-27 23:34N 29°44' W 095°12'0 0.0
2015-Apr-27 22:33N 29°44' W 095°12'0 0.0
2015-Apr-27 21:33N 29°44' W 095°12'0 0.0
2015-Apr-27 20:33N 29°44' W 095°12'0 0.0
2015-Apr-27 19:33N 29°44' W 095°12'0 0.0
2015-Apr-27 18:33N 29°44' W 095°12'0 0.0
2015-Apr-27 17:33N 29°44' W 095°12'0 0.0
2015-Apr-27 16:33N 29°44' W 095°12'0 0.0
2015-Apr-27 15:33N 29°44' W 095°12'0 0.0
2015-Apr-27 14:33N 29°44' W 095°12'0 0.0
2015-Apr-27 13:33N 29°44' W 095°12'0 0.0
2015-Apr-27 12:33N 29°44' W 095°12'0 0.0
2015-Apr-27 11:33N 29°44' W 095°12'0 0.0
2015-Apr-27 10:33N 29°44' W 095°12'0 0.0
2015-Apr-27 09:33N 29°44' W 095°12'0 0.0
2015-Apr-27 08:33N 29°44' W 095°12'0 0.0
2015-Apr-27 07:33N 29°44' W 095°12'0 0.0
2015-Apr-27 06:33N 29°44' W 095°12'0 0.0
2015-Apr-27 05:33N 29°44' W 095°12'0 0.0
2015-Apr-27 04:33N 29°44' W 095°12'0 0.0
2015-Apr-27 03:33N 29°44' W 095°12'0 0.0
2015-Apr-27 02:33N 29°44' W 095°12'0 0.0
2015-Apr-27 01:33N 29°44' W 095°12'0 0.0
2015-Apr-27 00:33N 29°44' W 095°12'0 0.0
2015-Apr-26 23:33N 29°44' W 095°12'0 0.0
2015-Apr-26 22:33N 29°44' W 095°12'0 0.0
2015-Apr-26 21:33N 29°44' W 095°12'1 0.5
2015-Apr-26 20:33N 29°45' W 095°12'5 4.6
2015-Apr-26 19:33N 29°45' W 095°06'4 3.6
2015-Apr-26 18:33N 29°47' W 095°04'1 0.9
2015-Apr-26 17:33N 29°47' W 095°05'4 4.0
2015-Apr-26 16:33N 29°44' W 095°01'0 0.1
2015-Apr-26 15:34N 29°44' W 095°01'1 0.6
2015-Apr-26 14:33N 29°43' W 095°01'0 0.0
2015-Apr-26 13:33N 29°43' W 095°01'0 0.0
2015-Apr-26 12:33N 29°43' W 095°01'0 0.0
2015-Apr-26 11:33N 29°43' W 095°01'5 4.7
2015-Apr-26 10:33N 29°47' W 095°04'2 2.4
2015-Apr-26 09:33N 29°46' W 095°06'0 0.0
2015-Apr-26 08:33N 29°46' W 095°06'0 0.0
2015-Apr-26 07:33N 29°46' W 095°06'0 0.0
2015-Apr-26 06:33N 29°46' W 095°06'0 0.0
2015-Apr-26 05:33N 29°46' W 095°06'0 0.0
2015-Apr-26 04:33N 29°46' W 095°06'0 0.0
2015-Apr-26 03:33N 29°46' W 095°06'0 0.0
2015-Apr-26 02:33N 29°46' W 095°06'0 0.0
2015-Apr-26 01:33N 29°46' W 095°06'0 0.0
2015-Apr-26 00:33N 29°46' W 095°06'0 0.0
2015-Apr-25 23:33N 29°46' W 095°06'872871.8
2015-Apr-25 22:33N 29°46' W 111°50'872871.0
2015-Apr-25 21:33N 29°46' W 095°06'0 0.0
2015-Apr-25 20:33N 29°46' W 095°06'0 0.0
2015-Apr-25 19:33N 29°46' W 095°06'0 0.0
2015-Apr-25 18:33N 29°46' W 095°06'0 0.0
2015-Apr-25 17:34N 29°46' W 095°06'0 0.0
2015-Apr-25 16:33N 29°46' W 095°06'0 0.0
2015-Apr-25 15:33N 29°46' W 095°06'0 0.0
2015-Apr-25 14:33N 29°46' W 095°06'0 0.0
2015-Apr-25 13:33N 29°46' W 095°06'0 0.0
2015-Apr-25 12:33N 29°46' W 095°06'0 0.0
2015-Apr-25 11:33N 29°46' W 095°06'0 0.0
2015-Apr-25 10:33N 29°46' W 095°06'0 0.0
2015-Apr-25 09:33N 29°46' W 095°06'0 0.0
2015-Apr-25 08:33N 29°46' W 095°06'0 0.0
2015-Apr-25 07:33N 29°46' W 095°06'0 0.0
2015-Apr-25 06:33N 29°46' W 095°06'0 0.0
2015-Apr-25 05:33N 29°46' W 095°06'0 0.0
2015-Apr-25 04:33N 29°46' W 095°06'0 0.0
2015-Apr-25 03:33N 29°46' W 095°06'0 0.0
2015-Apr-25 02:33N 29°46' W 095°06'0 0.0
2015-Apr-25 01:33N 29°46' W 095°06'0 0.0
2015-Apr-25 00:33N 29°46' W 095°06'0 0.0
2015-Apr-24 23:33N 29°46' W 095°06'0 0.0
2015-Apr-24 22:33N 29°46' W 095°06'0 0.0
2015-Apr-24 21:33N 29°46' W 095°06'0 0.0
2015-Apr-24 20:33N 29°46' W 095°06'0 0.0
2015-Apr-24 19:33N 29°46' W 095°06'0 0.0
2015-Apr-24 18:33N 29°46' W 095°06'1 1.3
2015-Apr-24 17:33N 29°46' W 095°05'1 0.9
2015-Apr-24 16:33N 29°47' W 095°05'0 0.0
2015-Apr-24 15:33N 29°47' W 095°05'0 0.3
2015-Apr-24 14:34N 29°47' W 095°04'2 1.8
2015-Apr-24 13:33N 29°46' W 095°06'0 0.0
2015-Apr-24 12:33N 29°46' W 095°06'0 0.0
2015-Apr-24 11:33N 29°46' W 095°06'0 0.0
2015-Apr-24 10:33N 29°46' W 095°06'0 0.0
2015-Apr-24 09:33N 29°46' W 095°06'0 0.0
2015-Apr-24 08:33N 29°46' W 095°06'0 0.0
2015-Apr-24 07:33N 29°46' W 095°06'0 0.0
2015-Apr-24 06:33N 29°46' W 095°06'0 0.0
2015-Apr-24 05:33N 29°46' W 095°06'0 0.0
2015-Apr-24 04:33N 29°46' W 095°06'0 0.0
2015-Apr-24 03:33N 29°46' W 095°06'0 0.0
2015-Apr-24 02:33N 29°46' W 095°06'0 0.4
2015-Apr-24 01:34N 29°46' W 095°06'2 2.4
2015-Apr-24 00:33N 29°47' W 095°04'0 0.3
2015-Apr-23 23:33N 29°47' W 095°04'2 2.4
2015-Apr-23 22:33N 29°45' W 095°06'1 0.8
2015-Apr-23 21:33N 29°46' W 095°07'0 0.0
2015-Apr-23 20:33N 29°46' W 095°07'0 0.0
2015-Apr-23 19:33N 29°46' W 095°07'0 0.0
2015-Apr-23 18:33N 29°46' W 095°07'0 0.0
2015-Apr-23 17:33N 29°46' W 095°07'0 0.0
2015-Apr-23 16:33N 29°46' W 095°07'0 0.0
2015-Apr-23 15:33N 29°46' W 095°07'0 0.0
2015-Apr-23 14:33N 29°46' W 095°07'0 0.0
2015-Apr-23 13:33N 29°46' W 095°07'0 0.1
2015-Apr-23 12:34N 29°46' W 095°07'0 0.0
2015-Apr-23 11:33N 29°46' W 095°07'1 1.2
2015-Apr-23 10:33N 29°46' W 095°05'2 1.8
2015-Apr-23 09:33N 29°47' W 095°04'0 0.3
2015-Apr-23 08:33N 29°47' W 095°04'2 1.8
2015-Apr-23 07:33N 29°46' W 095°06'0 0.0
2015-Apr-23 06:33N 29°46' W 095°06'0 0.0
2015-Apr-23 05:33N 29°46' W 095°06'0 0.0
2015-Apr-23 04:33N 29°46' W 095°06'0 0.0
2015-Apr-23 03:33N 29°46' W 095°06'0 0.0
2015-Apr-23 02:33N 29°46' W 095°06'0 0.0
2015-Apr-23 01:33N 29°46' W 095°06'0 0.0
2015-Apr-23 00:33N 29°46' W 095°06'0 0.0
2015-Apr-22 23:33N 29°46' W 095°06'0 0.0
2015-Apr-22 22:33N 29°46' W 095°06'0 0.0
2015-Apr-22 21:33N 29°46' W 095°06'0 0.0
2015-Apr-22 20:33N 29°46' W 095°06'0 0.0
2015-Apr-22 19:33N 29°46' W 095°06'0 0.0
2015-Apr-22 18:33N 29°46' W 095°06'0 0.0
2015-Apr-22 17:33N 29°46' W 095°06'0 0.0
2015-Apr-22 16:33N 29°46' W 095°06'2 2.1
2015-Apr-22 15:33N 29°47' W 095°04'2 2.1
2015-Apr-22 14:33N 29°46' W 095°06'0 0.0
2015-Apr-22 13:33N 29°46' W 095°06'0 0.0
2015-Apr-22 12:33N 29°46' W 095°06'0 0.0
2015-Apr-22 11:33N 29°46' W 095°06'0 0.0
2015-Apr-22 10:33N 29°46' W 095°06'0 0.0
2015-Apr-22 09:33N 29°46' W 095°06'0 0.0
2015-Apr-22 08:33N 29°46' W 095°06'0 0.0
2015-Apr-22 07:33N 29°46' W 095°06'0 0.0
2015-Apr-22 06:33N 29°46' W 095°06'2 2.2
2015-Apr-22 05:33N 29°47' W 095°04'0 0.0
2015-Apr-22 04:33N 29°47' W 095°04'0 0.1
2015-Apr-22 03:33N 29°47' W 095°04'0 0.0
2015-Apr-22 02:32N 29°47' W 095°04'0 0.0
2015-Apr-22 01:32N 29°47' W 095°04'0 0.0
2015-Apr-22 00:33N 29°47' W 095°04'0 0.5
2015-Apr-21 23:33N 29°47' W 095°04'3 2.6
2015-Apr-21 22:33N 29°44' W 095°04'7 7.0
2015-Apr-21 21:33N 29°39' W 094°58'9 9.0
2015-Apr-21 20:33N 29°31' W 094°53'10 8.7
2015-Apr-21 19:24N 29°22' W 094°48'27 4.3
2015-Apr-21 13:16N 29°36' W 094°22'6 6.1
2015-Apr-21 12:18N 29°39' W 094°16'  
2015-Apr-18 14:07N 29°22' W 094°48'4 7.4
2015-Apr-18 13:33N 29°26' W 094°50'9 9.0
2015-Apr-18 12:33N 29°34' W 094°55'9 9.3
2015-Apr-18 11:33N 29°42' W 094°60'7 6.8
2015-Apr-18 10:34N 29°44' W 095°07'4 4.4
2015-Apr-18 09:33N 29°44' W 095°12'0 0.0
2015-Apr-18 08:33N 29°44' W 095°12'0 0.0
2015-Apr-18 07:33N 29°44' W 095°12'0 0.0
2015-Apr-18 06:33N 29°44' W 095°12'0 0.0
2015-Apr-18 05:33N 29°44' W 095°12'0 0.0
2015-Apr-18 04:33N 29°44' W 095°12'0 0.0
2015-Apr-18 03:33N 29°44' W 095°12'0 0.0
2015-Apr-18 02:33N 29°44' W 095°12'0 0.0
2015-Apr-18 01:33N 29°44' W 095°12'0 0.0
2015-Apr-18 00:33N 29°44' W 095°12'  

Dump ship's entire track history